sensor_id;sensor_type;location;lat;lon;timestamp;pressure;altitude;pressure_sealevel;temperature;humidity
43181;BME280;28798;54.950;26.362;2022-10-16T00:03:39;999;;;8;100
43181;BME280;28798;54.950;26.362;2022-10-16T00:13:50;998.9;;;8;100
43181;BME280;28798;54.950;26.362;2022-10-16T00:18:39;999;;;8.1;100
43181;BME280;28798;54.950;26.362;2022-10-16T00:23:50;999;;;8.1;100
43181;BME280;28798;54.950;26.362;2022-10-16T00:28:39;998.9;;;8;100
43181;BME280;28798;54.950;26.362;2022-10-16T00:33:49;998.9;;;8;100
43181;BME280;28798;54.950;26.362;2022-10-16T00:53:48;999;;;7.9;100
43181;BME280;28798;54.950;26.362;2022-10-16T00:59:10;999;;;7.9;100
43181;BME280;28798;54.950;26.362;2022-10-16T01:03:57;999;;;7.9;100
43181;BME280;28798;54.950;26.362;2022-10-16T01:18:41;999.2;;;8;100
43181;BME280;28798;54.950;26.362;2022-10-16T01:23:51;999.2;;;8.1;100
43181;BME280;28798;54.950;26.362;2022-10-16T01:28:46;999.2;;;8.1;100
43181;BME280;28798;54.950;26.362;2022-10-16T01:34:16;999.2;;;8.2;100
43181;BME280;28798;54.950;26.362;2022-10-16T01:38:39;999.2;;;8.2;100
43181;BME280;28798;54.950;26.362;2022-10-16T01:44:01;999.3;;;8.3;100
43181;BME280;28798;54.950;26.362;2022-10-16T01:48:39;999.4;;;8.4;100
43181;BME280;28798;54.950;26.362;2022-10-16T01:53:46;999.4;;;8.4;100
43181;BME280;28798;54.950;26.362;2022-10-16T01:58:40;999.4;;;8.4;100
43181;BME280;28798;54.950;26.362;2022-10-16T02:04:09;999.4;;;8.4;100
43181;BME280;28798;54.950;26.362;2022-10-16T02:18:40;999.5;;;8.6;100
43181;BME280;28798;54.950;26.362;2022-10-16T02:23:41;999.6;;;8.7;100
43181;BME280;28798;54.950;26.362;2022-10-16T02:28:48;999.6;;;8.7;100
43181;BME280;28798;54.950;26.362;2022-10-16T02:33:40;999.6;;;8.7;100
43181;BME280;28798;54.950;26.362;2022-10-16T02:48:49;999.6;;;8.8;100
43181;BME280;28798;54.950;26.362;2022-10-16T02:53:39;999.5;;;8.8;100
43181;BME280;28798;54.950;26.362;2022-10-16T02:58:39;999.5;;;8.8;100
43181;BME280;28798;54.950;26.362;2022-10-16T03:03:49;999.5;;;8.8;100
43181;BME280;28798;54.950;26.362;2022-10-16T03:08:47;999.5;;;8.8;100
43181;BME280;28798;54.950;26.362;2022-10-16T03:13:47;999.5;;;8.7;100
43181;BME280;28798;54.950;26.362;2022-10-16T03:18:55;999.6;;;8.8;100
43181;BME280;28798;54.950;26.362;2022-10-16T03:23:39;999.6;;;8.8;100
43181;BME280;28798;54.950;26.362;2022-10-16T03:28:39;999.6;;;8.8;100
43181;BME280;28798;54.950;26.362;2022-10-16T03:33:49;999.6;;;8.8;100
43181;BME280;28798;54.950;26.362;2022-10-16T03:38:39;999.6;;;8.8;100
43181;BME280;28798;54.950;26.362;2022-10-16T03:43:39;999.6;;;8.8;100
43181;BME280;28798;54.950;26.362;2022-10-16T03:48:49;999.8;;;8.8;100
43181;BME280;28798;54.950;26.362;2022-10-16T03:53:57;999.8;;;8.8;100
43181;BME280;28798;54.950;26.362;2022-10-16T03:58:57;999.8;;;8.8;100
43181;BME280;28798;54.950;26.362;2022-10-16T04:03:39;999.8;;;8.8;100
43181;BME280;28798;54.950;26.362;2022-10-16T04:18:47;999.6;;;8.7;100
43181;BME280;28798;54.950;26.362;2022-10-16T04:23:49;999.4;;;8.6;100
43181;BME280;28798;54.950;26.362;2022-10-16T04:28:49;999.4;;;8.6;100
43181;BME280;28798;54.950;26.362;2022-10-16T04:33:49;999.4;;;8.6;100
43181;BME280;28798;54.950;26.362;2022-10-16T04:38:59;999.5;;;8.7;100
43181;BME280;28798;54.950;26.362;2022-10-16T04:43:39;999.5;;;8.7;100
43181;BME280;28798;54.950;26.362;2022-10-16T04:48:47;999.5;;;8.7;100
43181;BME280;28798;54.950;26.362;2022-10-16T04:53:39;999.5;;;8.7;100
43181;BME280;28798;54.950;26.362;2022-10-16T04:59:01;999.5;;;8.7;100
43181;BME280;28798;54.950;26.362;2022-10-16T05:03:57;999.9;;;8.7;100
43181;BME280;28798;54.950;26.362;2022-10-16T05:08:47;999.9;;;8.7;100
43181;BME280;28798;54.950;26.362;2022-10-16T05:13:49;999.9;;;8.6;100
43181;BME280;28798;54.950;26.362;2022-10-16T05:18:50;999.9;;;8.6;100
43181;BME280;28798;54.950;26.362;2022-10-16T05:23:49;999.9;;;8.6;100
43181;BME280;28798;54.950;26.362;2022-10-16T05:28:39;999.9;;;8.6;100
43181;BME280;28798;54.950;26.362;2022-10-16T05:33:49;1000;;;8.6;100
43181;BME280;28798;54.950;26.362;2022-10-16T05:38:50;1000;;;8.6;100
43181;BME280;28798;54.950;26.362;2022-10-16T05:43:48;999.9;;;8.6;100
43181;BME280;28798;54.950;26.362;2022-10-16T05:48:57;1000;;;8.6;100
43181;BME280;28798;54.950;26.362;2022-10-16T05:53:40;1000;;;8.6;100
43181;BME280;28798;54.950;26.362;2022-10-16T05:58:39;1000;;;8.6;100
43181;BME280;28798;54.950;26.362;2022-10-16T06:03:49;1000;;;8.7;100
43181;BME280;28798;54.950;26.362;2022-10-16T06:14:00;1000.1;;;8.7;100
43181;BME280;28798;54.950;26.362;2022-10-16T06:19:02;1000.1;;;8.8;100
43181;BME280;28798;54.950;26.362;2022-10-16T06:23:39;1000.1;;;8.8;100
43181;BME280;28798;54.950;26.362;2022-10-16T06:28:58;1000.3;;;8.8;100
43181;BME280;28798;54.950;26.362;2022-10-16T06:33:49;1000.3;;;8.8;100
43181;BME280;28798;54.950;26.362;2022-10-16T06:38:57;1000.3;;;8.8;100
43181;BME280;28798;54.950;26.362;2022-10-16T06:43:40;1000.4;;;9;100
43181;BME280;28798;54.950;26.362;2022-10-16T06:48:48;1000.4;;;9;100
43181;BME280;28798;54.950;26.362;2022-10-16T06:53:40;1000.4;;;9;100
43181;BME280;28798;54.950;26.362;2022-10-16T06:58:58;1000.4;;;9.1;100
43181;BME280;28798;54.950;26.362;2022-10-16T07:03:50;1000.4;;;9.1;100
43181;BME280;28798;54.950;26.362;2022-10-16T07:08:50;1000.5;;;9.3;100
43181;BME280;28798;54.950;26.362;2022-10-16T07:13:40;1000.5;;;9.3;100
43181;BME280;28798;54.950;26.362;2022-10-16T07:18:49;1000.5;;;9.4;100
43181;BME280;28798;54.950;26.362;2022-10-16T07:23:39;1000.6;;;9.4;100
43181;BME280;28798;54.950;26.362;2022-10-16T07:28:39;1000.6;;;9.4;100
43181;BME280;28798;54.950;26.362;2022-10-16T07:33:47;1000.6;;;9.5;100
43181;BME280;28798;54.950;26.362;2022-10-16T07:38:39;1000.6;;;9.5;100
43181;BME280;28798;54.950;26.362;2022-10-16T07:43:39;1000.7;;;9.7;100
43181;BME280;28798;54.950;26.362;2022-10-16T07:48:40;1000.8;;;9.7;100
43181;BME280;28798;54.950;26.362;2022-10-16T07:53:39;1000.9;;;9.8;100
43181;BME280;28798;54.950;26.362;2022-10-16T07:58:40;1000.9;;;9.8;100
43181;BME280;28798;54.950;26.362;2022-10-16T08:03:41;1000.9;;;9.8;100
43181;BME280;28798;54.950;26.362;2022-10-16T08:13:40;1000.9;;;9.9;100
43181;BME280;28798;54.950;26.362;2022-10-16T08:18:47;1001;;;10;100
43181;BME280;28798;54.950;26.362;2022-10-16T08:23:39;1001;;;10.2;100
43181;BME280;28798;54.950;26.362;2022-10-16T08:29:01;1001;;;10.2;100
43181;BME280;28798;54.950;26.362;2022-10-16T08:33:48;1001;;;10.2;100
43181;BME280;28798;54.950;26.362;2022-10-16T08:38:59;1001;;;10.3;99.6
43181;BME280;28798;54.950;26.362;2022-10-16T08:43:43;1001;;;10.3;99.3
43181;BME280;28798;54.950;26.362;2022-10-16T08:49:01;1001;;;10.4;98.9
43181;BME280;28798;54.950;26.362;2022-10-16T08:53:42;1001;;;10.5;98.6
43181;BME280;28798;54.950;26.362;2022-10-16T08:58:49;1001;;;10.5;97.7
43181;BME280;28798;54.950;26.362;2022-10-16T09:03:53;1000.9;;;10.6;96.9
43181;BME280;28798;54.950;26.362;2022-10-16T09:09:02;1001;;;10.6;96.5
43181;BME280;28798;54.950;26.362;2022-10-16T09:13:50;1001;;;10.6;96.5
43181;BME280;28798;54.950;26.362;2022-10-16T09:18:52;1000.9;;;10.7;95.9
43181;BME280;28798;54.950;26.362;2022-10-16T09:23:50;1000.9;;;10.8;95.7
43181;BME280;28798;54.950;26.362;2022-10-16T09:28:55;1000.9;;;11;95.5
43181;BME280;28798;54.950;26.362;2022-10-16T09:33:39;1000.9;;;11;94.8
43181;BME280;28798;54.950;26.362;2022-10-16T09:38:39;1000.8;;;11;94.4
43181;BME280;28798;54.950;26.362;2022-10-16T09:43:40;1000.8;;;11.1;94.7
43181;BME280;28798;54.950;26.362;2022-10-16T09:48:48;1000.8;;;11.2;94.3
43181;BME280;28798;54.950;26.362;2022-10-16T09:53:58;1000.8;;;11.2;94
43181;BME280;28798;54.950;26.362;2022-10-16T09:58:59;1000.8;;;11.1;93.4
43181;BME280;28798;54.950;26.362;2022-10-16T10:03:50;1000.8;;;11.2;93.5
43181;BME280;28798;54.950;26.362;2022-10-16T10:08:54;1000.8;;;11.2;93.7
43181;BME280;28798;54.950;26.362;2022-10-16T10:13:39;1000.8;;;11.1;94
43181;BME280;28798;54.950;26.362;2022-10-16T10:18:57;1000.9;;;11.1;93.5
43181;BME280;28798;54.950;26.362;2022-10-16T10:24:12;1000.8;;;11.2;93.5
43181;BME280;28798;54.950;26.362;2022-10-16T10:28:44;1000.7;;;11.3;93.2
43181;BME280;28798;54.950;26.362;2022-10-16T10:33:41;1000.7;;;11.4;93.7
43181;BME280;28798;54.950;26.362;2022-10-16T10:38:50;1000.7;;;11.5;93.4
43181;BME280;28798;54.950;26.362;2022-10-16T10:43:42;1000.7;;;11.6;92.9
43181;BME280;28798;54.950;26.362;2022-10-16T10:48:44;1000.7;;;11.7;92.4
43181;BME280;28798;54.950;26.362;2022-10-16T10:53:51;1000.7;;;11.8;92.5
43181;BME280;28798;54.950;26.362;2022-10-16T10:58:46;1000.7;;;11.9;92
43181;BME280;28798;54.950;26.362;2022-10-16T11:04:04;1000.6;;;12;91.7
43181;BME280;28798;54.950;26.362;2022-10-16T11:08:50;1000.6;;;12;91.6
43181;BME280;28798;54.950;26.362;2022-10-16T11:13:42;1000.7;;;12.1;91
43181;BME280;28798;54.950;26.362;2022-10-16T11:19:12;1000.7;;;12.1;90.9
43181;BME280;28798;54.950;26.362;2022-10-16T11:23:40;1000.6;;;12.2;90.7
43181;BME280;28798;54.950;26.362;2022-10-16T11:28:41;1000.6;;;12.3;90.4
43181;BME280;28798;54.950;26.362;2022-10-16T11:33:49;1000.6;;;12.3;90.2
43181;BME280;28798;54.950;26.362;2022-10-16T11:39:17;1000.6;;;12.3;91.7
43181;BME280;28798;54.950;26.362;2022-10-16T11:43:41;1000.7;;;12.2;92
43181;BME280;28798;54.950;26.362;2022-10-16T11:48:41;1000.7;;;12.2;91.9
43181;BME280;28798;54.950;26.362;2022-10-16T11:53:42;1000.7;;;12.2;92.2
43181;BME280;28798;54.950;26.362;2022-10-16T11:58:41;1000.7;;;12.2;92
43181;BME280;28798;54.950;26.362;2022-10-16T12:03:48;1000.7;;;12.2;92
43181;BME280;28798;54.950;26.362;2022-10-16T12:08:40;1000.7;;;12.2;91.3
43181;BME280;28798;54.950;26.362;2022-10-16T12:14:03;1000.6;;;12.3;91.2
43181;BME280;28798;54.950;26.362;2022-10-16T12:19:03;1000.6;;;12.3;91.1
43181;BME280;28798;54.950;26.362;2022-10-16T12:24:22;1000.7;;;12.3;90.5
43181;BME280;28798;54.950;26.362;2022-10-16T12:29:12;1000.6;;;12.3;90.6
43181;BME280;28798;54.950;26.362;2022-10-16T12:33:40;1000.6;;;12.4;89.8
43181;BME280;28798;54.950;26.362;2022-10-16T12:38:50;1000.6;;;12.4;89.8
43181;BME280;28798;54.950;26.362;2022-10-16T12:43:40;1000.5;;;12.4;89.5
43181;BME280;28798;54.950;26.362;2022-10-16T12:48:40;1000.5;;;12.4;89.5
43181;BME280;28798;54.950;26.362;2022-10-16T12:54:00;1000.5;;;12.4;89.2
43181;BME280;28798;54.950;26.362;2022-10-16T12:58:44;1000.5;;;12.4;88.8
43181;BME280;28798;54.950;26.362;2022-10-16T13:03:43;1000.5;;;12.4;88.8
43181;BME280;28798;54.950;26.362;2022-10-16T13:08:44;1000.4;;;12.5;88.6
43181;BME280;28798;54.950;26.362;2022-10-16T13:13:43;1000.5;;;12.5;88.9
43181;BME280;28798;54.950;26.362;2022-10-16T13:18:43;1000.5;;;12.4;88.8
43181;BME280;28798;54.950;26.362;2022-10-16T13:23:59;1000.5;;;12.5;88.3
43181;BME280;28798;54.950;26.362;2022-10-16T13:28:50;1000.5;;;12.5;88.5
43181;BME280;28798;54.950;26.362;2022-10-16T13:33:40;1000.5;;;12.4;88.4
43181;BME280;28798;54.950;26.362;2022-10-16T13:38:59;1000.5;;;12.4;88.2
43181;BME280;28798;54.950;26.362;2022-10-16T13:44:02;1000.5;;;12.5;88.3
43181;BME280;28798;54.950;26.362;2022-10-16T13:48:59;1000.5;;;12.5;88
43181;BME280;28798;54.950;26.362;2022-10-16T13:53:52;1000.5;;;12.5;88
43181;BME280;28798;54.950;26.362;2022-10-16T13:58:59;1000.5;;;12.4;88
43181;BME280;28798;54.950;26.362;2022-10-16T14:03:40;1000.5;;;12.5;88.1
43181;BME280;28798;54.950;26.362;2022-10-16T14:09:14;1000.5;;;12.5;87.9
43181;BME280;28798;54.950;26.362;2022-10-16T14:13:42;1000.5;;;12.5;87.9
43181;BME280;28798;54.950;26.362;2022-10-16T14:18:40;1000.5;;;12.5;88.3
43181;BME280;28798;54.950;26.362;2022-10-16T14:23:40;1000.5;;;12.5;88
43181;BME280;28798;54.950;26.362;2022-10-16T14:28:40;1000.7;;;12.5;88.2
43181;BME280;28798;54.950;26.362;2022-10-16T14:33:40;1000.7;;;12.5;88
43181;BME280;28798;54.950;26.362;2022-10-16T14:38:52;1000.8;;;12.5;87.6
43181;BME280;28798;54.950;26.362;2022-10-16T14:44:01;1000.8;;;12.5;87.4
43181;BME280;28798;54.950;26.362;2022-10-16T14:48:40;1000.9;;;12.5;87.5
43181;BME280;28798;54.950;26.362;2022-10-16T14:53:58;1000.9;;;12.4;88.1
43181;BME280;28798;54.950;26.362;2022-10-16T14:58:40;1001;;;12.5;87.6
43181;BME280;28798;54.950;26.362;2022-10-16T15:03:48;1001.1;;;12.4;87.9
43181;BME280;28798;54.950;26.362;2022-10-16T15:08:40;1001.1;;;12.4;87.9
43181;BME280;28798;54.950;26.362;2022-10-16T15:13:40;1001;;;12.3;88.1
43181;BME280;28798;54.950;26.362;2022-10-16T15:18:40;1001.1;;;12.3;88.3
43181;BME280;28798;54.950;26.362;2022-10-16T15:23:50;1001.1;;;12.2;88.6
43181;BME280;28798;54.950;26.362;2022-10-16T15:28:58;1001;;;12.1;89.1
43181;BME280;28798;54.950;26.362;2022-10-16T15:33:50;1000.9;;;12.1;89.2
43181;BME280;28798;54.950;26.362;2022-10-16T15:38:40;1000.8;;;12;89.7
43181;BME280;28798;54.950;26.362;2022-10-16T15:43:40;1000.8;;;12;89.7
43181;BME280;28798;54.950;26.362;2022-10-16T15:48:48;1000.8;;;11.9;89.9
43181;BME280;28798;54.950;26.362;2022-10-16T15:53:48;1000.8;;;11.8;90.1
43181;BME280;28798;54.950;26.362;2022-10-16T15:58:40;1000.9;;;11.7;90.4
43181;BME280;28798;54.950;26.362;2022-10-16T16:03:40;1001;;;11.6;90.9
43181;BME280;28798;54.950;26.362;2022-10-16T16:09:02;1001.1;;;11.6;90.9
43181;BME280;28798;54.950;26.362;2022-10-16T16:13:40;1001.1;;;11.6;90.8
43181;BME280;28798;54.950;26.362;2022-10-16T16:18:52;1001.1;;;11.6;90.8
43181;BME280;28798;54.950;26.362;2022-10-16T16:23:58;1001.1;;;11.6;90.9
43181;BME280;28798;54.950;26.362;2022-10-16T16:28:40;1001;;;11.6;91.1
43181;BME280;28798;54.950;26.362;2022-10-16T16:33:48;1000.9;;;11.5;91.1
43181;BME280;28798;54.950;26.362;2022-10-16T16:38:40;1000.8;;;11.5;91.2
43181;BME280;28798;54.950;26.362;2022-10-16T16:43:40;1000.9;;;11.6;91.1
43181;BME280;28798;54.950;26.362;2022-10-16T16:49:02;1001;;;11.6;91.4
43181;BME280;28798;54.950;26.362;2022-10-16T16:53:40;1001;;;11.6;91.4
43181;BME280;28798;54.950;26.362;2022-10-16T16:58:40;1000.9;;;11.5;91.5
43181;BME280;28798;54.950;26.362;2022-10-16T17:03:41;1000.9;;;11.5;91.5
43181;BME280;28798;54.950;26.362;2022-10-16T17:14:00;1001;;;11.5;91.7
43181;BME280;28798;54.950;26.362;2022-10-16T17:18:40;1001.1;;;11.5;92.4
43181;BME280;28798;54.950;26.362;2022-10-16T17:23:40;1001.1;;;11.5;92.4
43181;BME280;28798;54.950;26.362;2022-10-16T17:28:50;1001.1;;;11.5;92.4
43181;BME280;28798;54.950;26.362;2022-10-16T17:33:58;1001.1;;;11.4;93.8
43181;BME280;28798;54.950;26.362;2022-10-16T17:38:40;1001;;;11.4;95.4
43181;BME280;28798;54.950;26.362;2022-10-16T17:43:58;1001;;;11.4;95.4
43181;BME280;28798;54.950;26.362;2022-10-16T17:48:50;1001;;;11.4;95.4
43181;BME280;28798;54.950;26.362;2022-10-16T17:53:40;1001;;;11.3;97.3
43181;BME280;28798;54.950;26.362;2022-10-16T17:58:50;1001;;;11.3;97.3
43181;BME280;28798;54.950;26.362;2022-10-16T18:03:48;1001;;;11.3;97.3
43181;BME280;28798;54.950;26.362;2022-10-16T18:18:48;1001;;;11.3;98.9
43181;BME280;28798;54.950;26.362;2022-10-16T18:23:40;1001.2;;;11.3;100
43181;BME280;28798;54.950;26.362;2022-10-16T18:28:40;1001.4;;;11.3;100
43181;BME280;28798;54.950;26.362;2022-10-16T18:33:40;1001.4;;;11.3;100
43181;BME280;28798;54.950;26.362;2022-10-16T18:43:40;1001.3;;;11.3;100
43181;BME280;28798;54.950;26.362;2022-10-16T18:48:48;1001.2;;;11.3;100
43181;BME280;28798;54.950;26.362;2022-10-16T18:53:59;1001.4;;;11.3;100
43181;BME280;28798;54.950;26.362;2022-10-16T18:58:48;1001.4;;;11.3;100
43181;BME280;28798;54.950;26.362;2022-10-16T19:03:48;1001.4;;;11.3;100
43181;BME280;28798;54.950;26.362;2022-10-16T19:13:40;1001.4;;;11.3;100
43181;BME280;28798;54.950;26.362;2022-10-16T19:18:40;1001.4;;;11.2;100
43181;BME280;28798;54.950;26.362;2022-10-16T19:23:40;1001.4;;;11.2;100
43181;BME280;28798;54.950;26.362;2022-10-16T19:28:48;1001.4;;;11.1;100
43181;BME280;28798;54.950;26.362;2022-10-16T19:33:50;1001.4;;;11.1;100
43181;BME280;28798;54.950;26.362;2022-10-16T19:48:40;1001.4;;;11.1;100
43181;BME280;28798;54.950;26.362;2022-10-16T19:53:51;1001.5;;;11.1;100
43181;BME280;28798;54.950;26.362;2022-10-16T19:59:14;1001.5;;;11.1;100
43181;BME280;28798;54.950;26.362;2022-10-16T20:04:00;1001.5;;;11.1;100
43181;BME280;28798;54.950;26.362;2022-10-16T20:08:40;1001.4;;;11;100
43181;BME280;28798;54.950;26.362;2022-10-16T20:13:50;1001.5;;;11.1;100
43181;BME280;28798;54.950;26.362;2022-10-16T20:18:40;1001.5;;;11.1;100
43181;BME280;28798;54.950;26.362;2022-10-16T20:23:56;1001.5;;;11;100
43181;BME280;28798;54.950;26.362;2022-10-16T20:28:40;1001.5;;;11;100
43181;BME280;28798;54.950;26.362;2022-10-16T20:33:40;1001.5;;;11;100
43181;BME280;28798;54.950;26.362;2022-10-16T20:39:00;1001.5;;;11;100
43181;BME280;28798;54.950;26.362;2022-10-16T20:43:40;1001.5;;;11;100
43181;BME280;28798;54.950;26.362;2022-10-16T20:48:50;1001.5;;;11;100
43181;BME280;28798;54.950;26.362;2022-10-16T20:53:40;1001.5;;;11;100
43181;BME280;28798;54.950;26.362;2022-10-16T20:58:40;1001.5;;;11;100
43181;BME280;28798;54.950;26.362;2022-10-16T21:04:00;1001.5;;;11;100
43181;BME280;28798;54.950;26.362;2022-10-16T21:08:50;1001.5;;;11;100
43181;BME280;28798;54.950;26.362;2022-10-16T21:13:50;1001.6;;;11;100
43181;BME280;28798;54.950;26.362;2022-10-16T21:18:52;1001.6;;;11;100
43181;BME280;28798;54.950;26.362;2022-10-16T21:23:40;1001.6;;;11;100
43181;BME280;28798;54.950;26.362;2022-10-16T21:28:40;1001.6;;;11;100
43181;BME280;28798;54.950;26.362;2022-10-16T21:33:40;1001.6;;;11;100
43181;BME280;28798;54.950;26.362;2022-10-16T21:43:40;1001.6;;;11;100
43181;BME280;28798;54.950;26.362;2022-10-16T21:48:51;1001.7;;;11;100
43181;BME280;28798;54.950;26.362;2022-10-16T21:53:40;1001.7;;;11;100
43181;BME280;28798;54.950;26.362;2022-10-16T21:59:04;1001.7;;;11;100
43181;BME280;28798;54.950;26.362;2022-10-16T22:03:40;1001.7;;;11;100
43181;BME280;28798;54.950;26.362;2022-10-16T22:18:40;1001.7;;;11;100
43181;BME280;28798;54.950;26.362;2022-10-16T22:24:02;1001.8;;;10.9;100
43181;BME280;28798;54.950;26.362;2022-10-16T22:28:40;1001.8;;;10.9;100
43181;BME280;28798;54.950;26.362;2022-10-16T22:33:40;1001.9;;;10.9;100
43181;BME280;28798;54.950;26.362;2022-10-16T22:43:41;1001.9;;;10.9;100
43181;BME280;28798;54.950;26.362;2022-10-16T22:48:40;1001.9;;;10.9;100
43181;BME280;28798;54.950;26.362;2022-10-16T22:53:50;1001.9;;;10.9;100
43181;BME280;28798;54.950;26.362;2022-10-16T22:58:48;1001.9;;;10.9;100
43181;BME280;28798;54.950;26.362;2022-10-16T23:08:40;1001.7;;;11;100
43181;BME280;28798;54.950;26.362;2022-10-16T23:13:40;1001.7;;;11;100
43181;BME280;28798;54.950;26.362;2022-10-16T23:18:50;1001.8;;;11;100
43181;BME280;28798;54.950;26.362;2022-10-16T23:23:56;1001.8;;;11;100
43181;BME280;28798;54.950;26.362;2022-10-16T23:28:58;1001.8;;;11;100
43181;BME280;28798;54.950;26.362;2022-10-16T23:33:48;1002.1;;;11;100
43181;BME280;28798;54.950;26.362;2022-10-16T23:38:40;1002.2;;;11;100
43181;BME280;28798;54.950;26.362;2022-10-16T23:43:40;1002.2;;;11;100
43181;BME280;28798;54.950;26.362;2022-10-16T23:48:48;1002.2;;;11;100
43181;BME280;28798;54.950;26.362;2022-10-16T23:53:40;1002.2;;;11;100
